sensor_id;sensor_type;location;lat;lon;timestamp;pressure;altitude;pressure_sealevel;temperature;humidity
65546;BME280;52177;55.968;37.498;2023-03-03T00:00:26;98302.13;;;-1.80;81.18
65546;BME280;52177;55.968;37.498;2023-03-03T00:00:57;98299.53;;;-1.80;81.05
65546;BME280;52177;55.968;37.498;2023-03-03T00:01:27;98302.13;;;-1.80;81.26
65546;BME280;52177;55.968;37.498;2023-03-03T00:01:58;98302.13;;;-1.80;81.22
65546;BME280;52177;55.968;37.498;2023-03-03T00:02:28;98301.31;;;-1.80;81.19
65546;BME280;52177;55.968;37.498;2023-03-03T00:02:59;98296.22;;;-1.82;81.10
65546;BME280;52177;55.968;37.498;2023-03-03T00:03:33;98294.41;;;-1.81;81.18
65546;BME280;52177;55.968;37.498;2023-03-03T00:04:03;98297.03;;;-1.81;81.19
65546;BME280;52177;55.968;37.498;2023-03-03T00:04:33;98295.25;;;-1.81;81.09
65546;BME280;52177;55.968;37.498;2023-03-03T00:05:04;98295.25;;;-1.81;81.25
65546;BME280;52177;55.968;37.498;2023-03-03T00:05:34;98291.94;;;-1.83;81.32
65546;BME280;52177;55.968;37.498;2023-03-03T00:06:05;98288.50;;;-1.83;81.39
65546;BME280;52177;55.968;37.498;2023-03-03T00:06:37;98289.31;;;-1.83;81.45
65546;BME280;52177;55.968;37.498;2023-03-03T00:07:08;98289.19;;;-1.81;81.40
65546;BME280;52177;55.968;37.498;2023-03-03T00:07:42;98291.81;;;-1.81;81.34
65546;BME280;52177;55.968;37.498;2023-03-03T00:08:12;98290.00;;;-1.81;81.41
65546;BME280;52177;55.968;37.498;2023-03-03T00:08:42;98291.69;;;-1.80;81.32
65546;BME280;52177;55.968;37.498;2023-03-03T00:09:13;98293.47;;;-1.80;81.30
65546;BME280;52177;55.968;37.498;2023-03-03T00:09:43;98289.88;;;-1.79;81.29
65546;BME280;52177;55.968;37.498;2023-03-03T00:10:13;98282.88;;;-1.79;81.37
65546;BME280;52177;55.968;37.498;2023-03-03T00:10:43;98288.09;;;-1.79;81.24
65546;BME280;52177;55.968;37.498;2023-03-03T00:11:14;98292.38;;;-1.78;81.19
65546;BME280;52177;55.968;37.498;2023-03-03T00:11:45;98289.78;;;-1.78;81.17
65546;BME280;52177;55.968;37.498;2023-03-03T00:12:20;98289.78;;;-1.78;81.28
65546;BME280;52177;55.968;37.498;2023-03-03T00:12:50;98290.44;;;-1.76;81.13
65546;BME280;52177;55.968;37.498;2023-03-03T00:13:21;98294.84;;;-1.76;81.18
65546;BME280;52177;55.968;37.498;2023-03-03T00:13:53;98287.69;;;-1.74;81.15
65546;BME280;52177;55.968;37.498;2023-03-03T00:14:30;98291.13;;;-1.74;81.09
65546;BME280;52177;55.968;37.498;2023-03-03T00:15:10;98285.91;;;-1.74;80.93
65546;BME280;52177;55.968;37.498;2023-03-03T00:15:42;98279.75;;;-1.73;80.79
65546;BME280;52177;55.968;37.498;2023-03-03T00:16:30;98284.00;;;-1.72;80.61
65546;BME280;52177;55.968;37.498;2023-03-03T00:17:00;98282.34;;;-1.73;80.87
65546;BME280;52177;55.968;37.498;2023-03-03T00:17:42;98276.31;;;-1.73;80.88
65546;BME280;52177;55.968;37.498;2023-03-03T00:18:55;98272.84;;;-1.74;81.05
65546;BME280;52177;55.968;37.498;2023-03-03T00:19:25;98275.47;;;-1.74;80.97
65546;BME280;52177;55.968;37.498;2023-03-03T00:19:55;98275.47;;;-1.74;81.07
65546;BME280;52177;55.968;37.498;2023-03-03T00:20:59;98271.91;;;-1.73;81.05
65546;BME280;52177;55.968;37.498;2023-03-03T00:21:40;98271.09;;;-1.73;80.93
65546;BME280;52177;55.968;37.498;2023-03-03T00:22:53;98266.69;;;-1.73;81.10
65546;BME280;52177;55.968;37.498;2023-03-03T00:23:53;98268.31;;;-1.72;80.96
65546;BME280;52177;55.968;37.498;2023-03-03T00:24:25;98263.09;;;-1.72;81.09
65546;BME280;52177;55.968;37.498;2023-03-03T00:25:53;98257.06;;;-1.72;81.04
65546;BME280;52177;55.968;37.498;2023-03-03T00:26:31;98259.66;;;-1.72;81.03
65546;BME280;52177;55.968;37.498;2023-03-03T00:27:25;98251.81;;;-1.72;81.02
65546;BME280;52177;55.968;37.498;2023-03-03T00:28:31;98253.47;;;-1.71;81.00
65546;BME280;52177;55.968;37.498;2023-03-03T00:28:54;98251.69;;;-1.71;80.98
65546;BME280;52177;55.968;37.498;2023-03-03T00:29:56;98260.34;;;-1.70;80.80
65546;BME280;52177;55.968;37.498;2023-03-03T00:30:27;98254.31;;;-1.71;80.78
65546;BME280;52177;55.968;37.498;2023-03-03T00:30:58;98265.59;;;-1.70;81.03
65546;BME280;52177;55.968;37.498;2023-03-03T00:31:32;98259.53;;;-1.71;81.04
65546;BME280;52177;55.968;37.498;2023-03-03T00:32:53;98250.84;;;-1.71;81.20
65546;BME280;52177;55.968;37.498;2023-03-03T00:33:28;98247.28;;;-1.70;81.28
65546;BME280;52177;55.968;37.498;2023-03-03T00:34:18;98246.47;;;-1.71;81.31
65546;BME280;52177;55.968;37.498;2023-03-03T00:34:53;98246.47;;;-1.71;81.45
65546;BME280;52177;55.968;37.498;2023-03-03T00:35:28;98247.56;;;-1.73;81.59
65546;BME280;52177;55.968;37.498;2023-03-03T00:36:09;98251.00;;;-1.73;81.79
65546;BME280;52177;55.968;37.498;2023-03-03T00:36:54;98246.59;;;-1.72;81.82
65546;BME280;52177;55.968;37.498;2023-03-03T00:37:58;98240.56;;;-1.73;82.03
65546;BME280;52177;55.968;37.498;2023-03-03T00:38:29;98237.13;;;-1.73;82.04
65546;BME280;52177;55.968;37.498;2023-03-03T00:39:37;98244.00;;;-1.72;82.09
65546;BME280;52177;55.968;37.498;2023-03-03T00:40:50;98236.72;;;-1.68;81.78
65546;BME280;52177;55.968;37.498;2023-03-03T00:41:24;98243.59;;;-1.67;81.91
65546;BME280;52177;55.968;37.498;2023-03-03T00:41:55;98235.63;;;-1.66;81.78
65546;BME280;52177;55.968;37.498;2023-03-03T00:42:26;98240.00;;;-1.66;81.75
65546;BME280;52177;55.968;37.498;2023-03-03T00:42:57;98239.06;;;-1.65;81.66
65546;BME280;52177;55.968;37.498;2023-03-03T00:43:34;98241.66;;;-1.65;81.78
65546;BME280;52177;55.968;37.498;2023-03-03T00:44:51;98243.19;;;-1.63;81.58
65546;BME280;52177;55.968;37.498;2023-03-03T00:44:59;98244.00;;;-1.62;81.56
65546;BME280;52177;55.968;37.498;2023-03-03T00:45:31;98246.50;;;-1.61;81.35
65546;BME280;52177;55.968;37.498;2023-03-03T00:46:03;98242.09;;;-1.60;81.32
65546;BME280;52177;55.968;37.498;2023-03-03T00:46:33;98244.69;;;-1.60;81.49
65546;BME280;52177;55.968;37.498;2023-03-03T00:47:25;98236.84;;;-1.60;81.69
65546;BME280;52177;55.968;37.498;2023-03-03T00:47:56;98241.09;;;-1.59;81.54
65546;BME280;52177;55.968;37.498;2023-03-03T00:48:27;98240.16;;;-1.58;81.46
65546;BME280;52177;55.968;37.498;2023-03-03T00:48:59;98231.34;;;-1.57;81.29
65546;BME280;52177;55.968;37.498;2023-03-03T00:49:29;98235.63;;;-1.56;81.22
65546;BME280;52177;55.968;37.498;2023-03-03T00:50:35;98232.19;;;-1.57;81.19
65546;BME280;52177;55.968;37.498;2023-03-03T00:51:30;98233.97;;;-1.57;81.28
65546;BME280;52177;55.968;37.498;2023-03-03T00:51:59;98233.16;;;-1.58;81.67
65546;BME280;52177;55.968;37.498;2023-03-03T00:52:32;98232.31;;;-1.58;81.86
65546;BME280;52177;55.968;37.498;2023-03-03T00:53:05;98231.34;;;-1.57;81.80
65546;BME280;52177;55.968;37.498;2023-03-03T00:53:36;98227.09;;;-1.58;81.79
65546;BME280;52177;55.968;37.498;2023-03-03T00:54:06;98228.03;;;-1.59;82.00
65546;BME280;52177;55.968;37.498;2023-03-03T00:54:36;98227.09;;;-1.58;81.92
65546;BME280;52177;55.968;37.498;2023-03-03T00:55:07;98227.91;;;-1.58;81.98
65546;BME280;52177;55.968;37.498;2023-03-03T00:55:37;98233.03;;;-1.56;81.82
65546;BME280;52177;55.968;37.498;2023-03-03T00:56:08;98239.88;;;-1.55;81.67
65546;BME280;52177;55.968;37.498;2023-03-03T00:56:38;98227.63;;;-1.55;81.51
65546;BME280;52177;55.968;37.498;2023-03-03T00:57:09;98223.38;;;-1.56;81.60
65546;BME280;52177;55.968;37.498;2023-03-03T00:57:41;98229.44;;;-1.55;81.68
65546;BME280;52177;55.968;37.498;2023-03-03T00:58:11;98219.66;;;-1.53;81.29
65546;BME280;52177;55.968;37.498;2023-03-03T00:58:42;98224.91;;;-1.53;81.38
65546;BME280;52177;55.968;37.498;2023-03-03T00:59:14;98225.88;;;-1.54;81.44
65546;BME280;52177;55.968;37.498;2023-03-03T00:59:45;98224.06;;;-1.54;81.40
65546;BME280;52177;55.968;37.498;2023-03-03T01:00:15;98218.03;;;-1.54;81.42
65546;BME280;52177;55.968;37.498;2023-03-03T01:00:45;98224.06;;;-1.54;81.48
65546;BME280;52177;55.968;37.498;2023-03-03T01:01:16;98224.91;;;-1.53;81.52
65546;BME280;52177;55.968;37.498;2023-03-03T01:01:47;98219.66;;;-1.53;81.45
65546;BME280;52177;55.968;37.498;2023-03-03T01:02:17;98224.91;;;-1.53;81.60
65546;BME280;52177;55.968;37.498;2023-03-03T01:02:47;98224.91;;;-1.53;81.51
65546;BME280;52177;55.968;37.498;2023-03-03T01:03:19;98220.50;;;-1.53;81.73
65546;BME280;52177;55.968;37.498;2023-03-03T01:03:50;98230.13;;;-1.53;81.77
65546;BME280;52177;55.968;37.498;2023-03-03T01:04:20;98223.25;;;-1.54;81.72
65546;BME280;52177;55.968;37.498;2023-03-03T01:04:51;98221.47;;;-1.54;81.69
65546;BME280;52177;55.968;37.498;2023-03-03T01:05:22;98220.78;;;-1.56;81.96
65546;BME280;52177;55.968;37.498;2023-03-03T01:05:52;98219.78;;;-1.55;82.20
65546;BME280;52177;55.968;37.498;2023-03-03T01:06:22;98222.41;;;-1.55;82.06
65546;BME280;52177;55.968;37.498;2023-03-03T01:06:53;98216.38;;;-1.55;82.30
65546;BME280;52177;55.968;37.498;2023-03-03T01:07:23;98219.94;;;-1.56;82.30
65546;BME280;52177;55.968;37.498;2023-03-03T01:07:54;98221.59;;;-1.55;82.38
65546;BME280;52177;55.968;37.498;2023-03-03T01:08:24;98223.25;;;-1.54;82.46
65546;BME280;52177;55.968;37.498;2023-03-03T01:08:54;98221.59;;;-1.55;82.43
65546;BME280;52177;55.968;37.498;2023-03-03T01:09:26;98223.38;;;-1.56;82.61
65546;BME280;52177;55.968;37.498;2023-03-03T01:09:56;98224.38;;;-1.57;82.78
65546;BME280;52177;55.968;37.498;2023-03-03T01:10:26;98222.69;;;-1.58;82.85
65546;BME280;52177;55.968;37.498;2023-03-03T01:10:59;98217.34;;;-1.56;82.85
65546;BME280;52177;55.968;37.498;2023-03-03T01:11:32;98222.56;;;-1.56;82.97
65546;BME280;52177;55.968;37.498;2023-03-03T01:12:03;98226.81;;;-1.55;82.96
65546;BME280;52177;55.968;37.498;2023-03-03T01:12:33;98217.19;;;-1.55;82.77
65546;BME280;52177;55.968;37.498;2023-03-03T01:13:04;98222.28;;;-1.53;82.67
65546;BME280;52177;55.968;37.498;2023-03-03T01:13:35;98223.09;;;-1.53;82.59
65546;BME280;52177;55.968;37.498;2023-03-03T01:14:06;98222.97;;;-1.51;82.58
65546;BME280;52177;55.968;37.498;2023-03-03T01:14:37;98218.56;;;-1.51;82.55
65546;BME280;52177;55.968;37.498;2023-03-03T01:15:08;98214.31;;;-1.52;82.57
65546;BME280;52177;55.968;37.498;2023-03-03T01:15:39;98217.75;;;-1.51;82.63
65546;BME280;52177;55.968;37.498;2023-03-03T01:16:09;98215.97;;;-1.51;82.45
65546;BME280;52177;55.968;37.498;2023-03-03T01:16:39;98217.63;;;-1.50;82.47
65546;BME280;52177;55.968;37.498;2023-03-03T01:17:10;98213.22;;;-1.49;82.31
65546;BME280;52177;55.968;37.498;2023-03-03T01:17:41;98216.78;;;-1.50;82.53
65546;BME280;52177;55.968;37.498;2023-03-03T01:18:11;98219.25;;;-1.49;82.50
65546;BME280;52177;55.968;37.498;2023-03-03T01:18:42;98214.03;;;-1.49;82.47
65546;BME280;52177;55.968;37.498;2023-03-03T01:19:12;98220.09;;;-1.48;82.62
65546;BME280;52177;55.968;37.498;2023-03-03T01:19:43;98214.03;;;-1.49;82.67
65546;BME280;52177;55.968;37.498;2023-03-03T01:20:13;98215.72;;;-1.47;82.71
65546;BME280;52177;55.968;37.498;2023-03-03T01:20:44;98215.84;;;-1.49;82.73
65546;BME280;52177;55.968;37.498;2023-03-03T01:21:14;98216.66;;;-1.49;82.73
65546;BME280;52177;55.968;37.498;2023-03-03T01:21:44;98210.47;;;-1.47;82.79
65546;BME280;52177;55.968;37.498;2023-03-03T01:22:14;98210.31;;;-1.46;82.73
65546;BME280;52177;55.968;37.498;2023-03-03T01:22:44;98214.59;;;-1.45;82.45
65546;BME280;52177;55.968;37.498;2023-03-03T01:23:15;98212.94;;;-1.46;82.44
65546;BME280;52177;55.968;37.498;2023-03-03T01:23:45;98207.00;;;-1.48;82.72
65546;BME280;52177;55.968;37.498;2023-03-03T01:24:15;98211.28;;;-1.47;82.62
65546;BME280;52177;55.968;37.498;2023-03-03T01:24:46;98210.31;;;-1.46;82.52
65546;BME280;52177;55.968;37.498;2023-03-03T01:25:16;98212.94;;;-1.46;82.65
65546;BME280;52177;55.968;37.498;2023-03-03T01:25:46;98216.53;;;-1.47;82.71
65546;BME280;52177;55.968;37.498;2023-03-03T01:26:17;98212.94;;;-1.46;82.87
65546;BME280;52177;55.968;37.498;2023-03-03T01:26:47;98214.84;;;-1.48;82.99
65546;BME280;52177;55.968;37.498;2023-03-03T01:27:17;98216.53;;;-1.47;82.99
65546;BME280;52177;55.968;37.498;2023-03-03T01:27:47;98212.13;;;-1.46;82.99
65546;BME280;52177;55.968;37.498;2023-03-03T01:28:18;98212.94;;;-1.46;82.87
65546;BME280;52177;55.968;37.498;2023-03-03T01:28:48;98217.22;;;-1.45;82.78
65546;BME280;52177;55.968;37.498;2023-03-03T01:29:18;98214.59;;;-1.45;82.79
65546;BME280;52177;55.968;37.498;2023-03-03T01:29:48;98210.31;;;-1.46;82.71
65546;BME280;52177;55.968;37.498;2023-03-03T01:30:19;98213.75;;;-1.45;82.87
65546;BME280;52177;55.968;37.498;2023-03-03T01:30:49;98214.72;;;-1.46;83.05
65546;BME280;52177;55.968;37.498;2023-03-03T01:31:19;98210.31;;;-1.46;82.99
65546;BME280;52177;55.968;37.498;2023-03-03T01:31:50;98215.53;;;-1.46;83.07
65546;BME280;52177;55.968;37.498;2023-03-03T01:32:20;98205.09;;;-1.46;83.12
65546;BME280;52177;55.968;37.498;2023-03-03T01:32:50;98204.28;;;-1.46;83.28
65546;BME280;52177;55.968;37.498;2023-03-03T01:33:20;98206.06;;;-1.47;83.32
65546;BME280;52177;55.968;37.498;2023-03-03T01:33:51;98210.31;;;-1.46;83.35
65546;BME280;52177;55.968;37.498;2023-03-03T01:34:21;98214.72;;;-1.46;83.59
65546;BME280;52177;55.968;37.498;2023-03-03T01:34:51;98212.13;;;-1.46;83.60
65546;BME280;52177;55.968;37.498;2023-03-03T01:35:22;98208.69;;;-1.47;83.60
65546;BME280;52177;55.968;37.498;2023-03-03T01:35:52;98211.28;;;-1.47;83.74
65546;BME280;52177;55.968;37.498;2023-03-03T01:36:25;98206.88;;;-1.46;83.50
65546;BME280;52177;55.968;37.498;2023-03-03T01:36:55;98209.38;;;-1.45;83.68
65546;BME280;52177;55.968;37.498;2023-03-03T01:37:26;98204.97;;;-1.44;83.46
65546;BME280;52177;55.968;37.498;2023-03-03T01:37:56;98204.16;;;-1.45;83.57
65546;BME280;52177;55.968;37.498;2023-03-03T01:38:27;98210.03;;;-1.43;83.41
65546;BME280;52177;55.968;37.498;2023-03-03T01:38:58;98203.03;;;-1.42;83.34
65546;BME280;52177;55.968;37.498;2023-03-03T01:39:28;98196.97;;;-1.43;83.38
65546;BME280;52177;55.968;37.498;2023-03-03T01:39:58;98199.59;;;-1.43;83.45
65546;BME280;52177;55.968;37.498;2023-03-03T01:40:29;98204.00;;;-1.43;83.44
65546;BME280;52177;55.968;37.498;2023-03-03T01:40:59;98202.19;;;-1.43;83.67
65546;BME280;52177;55.968;37.498;2023-03-03T01:41:30;98192.72;;;-1.44;83.79
65546;BME280;52177;55.968;37.498;2023-03-03T01:42:02;98193.53;;;-1.43;83.58
65546;BME280;52177;55.968;37.498;2023-03-03T01:42:32;98190.78;;;-1.42;83.63
65546;BME280;52177;55.968;37.498;2023-03-03T01:43:03;98193.41;;;-1.42;83.59
65546;BME280;52177;55.968;37.498;2023-03-03T01:43:33;98188.31;;;-1.43;83.67
65546;BME280;52177;55.968;37.498;2023-03-03T01:44:03;98190.94;;;-1.43;83.63
65546;BME280;52177;55.968;37.498;2023-03-03T01:44:34;98189.97;;;-1.42;83.48
65546;BME280;52177;55.968;37.498;2023-03-03T01:46:54;98189.00;;;-1.41;83.58
65546;BME280;52177;55.968;37.498;2023-03-03T01:47:28;98186.38;;;-1.41;83.69
65546;BME280;52177;55.968;37.498;2023-03-03T01:48:30;98183.91;;;-1.43;83.89
65546;BME280;52177;55.968;37.498;2023-03-03T01:49:04;98189.13;;;-1.43;83.94
65546;BME280;52177;55.968;37.498;2023-03-03T01:49:50;98185.69;;;-1.43;83.91
65546;BME280;52177;55.968;37.498;2023-03-03T01:51:01;98181.44;;;-1.44;84.01
65546;BME280;52177;55.968;37.498;2023-03-03T01:51:35;98176.22;;;-1.44;84.00
65546;BME280;52177;55.968;37.498;2023-03-03T01:52:11;98179.66;;;-1.44;83.96
65546;BME280;52177;55.968;37.498;2023-03-03T01:52:43;98181.44;;;-1.44;84.09
65546;BME280;52177;55.968;37.498;2023-03-03T01:53:18;98178.84;;;-1.44;84.24
65546;BME280;52177;55.968;37.498;2023-03-03T01:53:50;98179.78;;;-1.45;84.20
65546;BME280;52177;55.968;37.498;2023-03-03T01:54:27;98181.56;;;-1.46;84.38
65546;BME280;52177;55.968;37.498;2023-03-03T01:55:02;98176.50;;;-1.47;84.28
65546;BME280;52177;55.968;37.498;2023-03-03T01:55:34;98172.91;;;-1.46;84.30
65546;BME280;52177;55.968;37.498;2023-03-03T01:56:05;98176.34;;;-1.46;84.22
65546;BME280;52177;55.968;37.498;2023-03-03T01:56:36;98178.00;;;-1.45;84.16
65546;BME280;52177;55.968;37.498;2023-03-03T01:57:09;98177.03;;;-1.44;84.16
65546;BME280;52177;55.968;37.498;2023-03-03T01:57:43;98181.44;;;-1.44;83.97
65546;BME280;52177;55.968;37.498;2023-03-03T01:58:17;98174.41;;;-1.44;84.09
65546;BME280;52177;55.968;37.498;2023-03-03T01:58:56;98183.09;;;-1.43;84.03
65546;BME280;52177;55.968;37.498;2023-03-03T01:59:28;98177.03;;;-1.44;84.19
65546;BME280;52177;55.968;37.498;2023-03-03T02:00:02;98177.03;;;-1.44;84.19
65546;BME280;52177;55.968;37.498;2023-03-03T02:00:34;98184.06;;;-1.44;84.19
65546;BME280;52177;55.968;37.498;2023-03-03T02:01:07;98179.66;;;-1.44;84.22
65546;BME280;52177;55.968;37.498;2023-03-03T02:01:38;98178.84;;;-1.44;84.01
65546;BME280;52177;55.968;37.498;2023-03-03T02:02:09;98181.28;;;-1.43;84.14
65546;BME280;52177;55.968;37.498;2023-03-03T02:02:40;98179.53;;;-1.42;84.11
65546;BME280;52177;55.968;37.498;2023-03-03T02:03:11;98181.16;;;-1.41;84.03
65546;BME280;52177;55.968;37.498;2023-03-03T02:03:42;98177.72;;;-1.42;83.99
65546;BME280;52177;55.968;37.498;2023-03-03T02:04:12;98178.41;;;-1.40;84.03
65546;BME280;52177;55.968;37.498;2023-03-03T02:04:43;98178.41;;;-1.40;83.88
65546;BME280;52177;55.968;37.498;2023-03-03T02:05:14;98176.63;;;-1.39;83.83
65546;BME280;52177;55.968;37.498;2023-03-03T02:05:45;98173.19;;;-1.40;83.86
65546;BME280;52177;55.968;37.498;2023-03-03T02:06:16;98176.63;;;-1.39;83.72
65546;BME280;52177;55.968;37.498;2023-03-03T02:06:49;98171.28;;;-1.38;83.72
65546;BME280;52177;55.968;37.498;2023-03-03T02:07:20;98168.66;;;-1.38;83.55
65546;BME280;52177;55.968;37.498;2023-03-03T02:07:52;98178.13;;;-1.37;83.60
65546;BME280;52177;55.968;37.498;2023-03-03T02:08:24;98167.69;;;-1.37;83.55
65546;BME280;52177;55.968;37.498;2023-03-03T02:09:10;98172.91;;;-1.37;83.52
65546;BME280;52177;55.968;37.498;2023-03-03T02:09:44;98171.28;;;-1.38;83.55
65546;BME280;52177;55.968;37.498;2023-03-03T02:10:17;98170.28;;;-1.37;83.45
65546;BME280;52177;55.968;37.498;2023-03-03T02:10:48;98163.25;;;-1.36;83.50
65546;BME280;52177;55.968;37.498;2023-03-03T02:11:20;98164.25;;;-1.37;83.51
65546;BME280;52177;55.968;37.498;2023-03-03T02:11:51;98165.19;;;-1.38;83.59
65546;BME280;52177;55.968;37.498;2023-03-03T02:12:37;98162.75;;;-1.40;83.67
65546;BME280;52177;55.968;37.498;2023-03-03T02:13:08;98161.75;;;-1.39;83.56
65546;BME280;52177;55.968;37.498;2023-03-03T02:13:38;98167.97;;;-1.40;83.62
65546;BME280;52177;55.968;37.498;2023-03-03T02:14:09;98162.75;;;-1.40;83.66
65546;BME280;52177;55.968;37.498;2023-03-03T02:14:40;98157.50;;;-1.40;83.57
65546;BME280;52177;55.968;37.498;2023-03-03T02:15:20;98153.09;;;-1.39;83.58
65546;BME280;52177;55.968;37.498;2023-03-03T02:15:51;98153.09;;;-1.39;83.54
65546;BME280;52177;55.968;37.498;2023-03-03T02:16:21;98160.13;;;-1.40;83.50
65546;BME280;52177;55.968;37.498;2023-03-03T02:16:52;98155.84;;;-1.41;83.58
65546;BME280;52177;55.968;37.498;2023-03-03T02:17:22;98148.84;;;-1.40;83.54
65546;BME280;52177;55.968;37.498;2023-03-03T02:17:53;98151.47;;;-1.40;83.53
65546;BME280;52177;55.968;37.498;2023-03-03T02:18:24;98148.16;;;-1.42;83.58
65546;BME280;52177;55.968;37.498;2023-03-03T02:18:54;98150.78;;;-1.42;83.63
65546;BME280;52177;55.968;37.498;2023-03-03T02:20:15;98142.94;;;-1.42;83.50
65546;BME280;52177;55.968;37.498;2023-03-03T02:21:19;98146.50;;;-1.43;83.64
65546;BME280;52177;55.968;37.498;2023-03-03T02:21:49;98145.53;;;-1.42;83.68
65546;BME280;52177;55.968;37.498;2023-03-03T02:22:22;98144.03;;;-1.45;83.74
65546;BME280;52177;55.968;37.498;2023-03-03T02:23:47;98142.94;;;-1.42;83.58
65546;BME280;52177;55.968;37.498;2023-03-03T02:24:55;98141.97;;;-1.41;83.53
65546;BME280;52177;55.968;37.498;2023-03-03T02:25:19;98145.38;;;-1.41;83.32
65546;BME280;52177;55.968;37.498;2023-03-03T02:26:28;98137.84;;;-1.44;83.41
65546;BME280;52177;55.968;37.498;2023-03-03T02:26:59;98143.88;;;-1.43;83.46
65546;BME280;52177;55.968;37.498;2023-03-03T02:27:30;98141.25;;;-1.43;83.56
65546;BME280;52177;55.968;37.498;2023-03-03T02:28:01;98141.25;;;-1.43;83.73
65546;BME280;52177;55.968;37.498;2023-03-03T02:28:32;98146.50;;;-1.43;83.72
65546;BME280;52177;55.968;37.498;2023-03-03T02:29:03;98135.22;;;-1.44;83.71
65546;BME280;52177;55.968;37.498;2023-03-03T02:29:33;98139.63;;;-1.44;83.63
65546;BME280;52177;55.968;37.498;2023-03-03T02:30:08;98139.63;;;-1.44;83.89
65546;BME280;52177;55.968;37.498;2023-03-03T02:30:39;98137.00;;;-1.44;83.89
65546;BME280;52177;55.968;37.498;2023-03-03T02:31:10;98138.81;;;-1.45;83.95
65546;BME280;52177;55.968;37.498;2023-03-03T02:31:42;98139.63;;;-1.44;83.84
65546;BME280;52177;55.968;37.498;2023-03-03T02:32:12;98137.16;;;-1.46;83.81
65546;BME280;52177;55.968;37.498;2023-03-03T02:32:43;98138.81;;;-1.45;83.86
65546;BME280;52177;55.968;37.498;2023-03-03T02:33:13;98139.63;;;-1.44;84.02
65546;BME280;52177;55.968;37.498;2023-03-03T02:33:45;98146.50;;;-1.43;84.04
65546;BME280;52177;55.968;37.498;2023-03-03T02:34:16;98135.09;;;-1.42;84.09
65546;BME280;52177;55.968;37.498;2023-03-03T02:34:47;98138.81;;;-1.45;84.35
65546;BME280;52177;55.968;37.498;2023-03-03T02:35:28;98143.06;;;-1.44;84.37
65546;BME280;52177;55.968;37.498;2023-03-03T02:35:58;98134.41;;;-1.44;84.56
65546;BME280;52177;55.968;37.498;2023-03-03T02:36:33;98142.09;;;-1.43;84.46
65546;BME280;52177;55.968;37.498;2023-03-03T02:37:03;98141.97;;;-1.41;84.22
65546;BME280;52177;55.968;37.498;2023-03-03T02:37:33;98138.53;;;-1.42;84.44
65546;BME280;52177;55.968;37.498;2023-03-03T02:38:55;98141.81;;;-1.40;84.25
65546;BME280;52177;55.968;37.498;2023-03-03T02:39:28;98132.19;;;-1.39;84.19
65546;BME280;52177;55.968;37.498;2023-03-03T02:39:59;98131.22;;;-1.38;84.27
65546;BME280;52177;55.968;37.498;2023-03-03T02:40:31;98129.44;;;-1.38;84.34
65546;BME280;52177;55.968;37.498;2023-03-03T02:41:59;98138.94;;;-1.37;84.40
65546;BME280;52177;55.968;37.498;2023-03-03T02:42:31;98133.69;;;-1.37;84.40
65546;BME280;52177;55.968;37.498;2023-03-03T02:43:01;98147.47;;;-1.35;84.28
65546;BME280;52177;55.968;37.498;2023-03-03T02:43:36;98141.41;;;-1.35;84.31
65546;BME280;52177;55.968;37.498;2023-03-03T02:44:09;98138.81;;;-1.35;84.30
65546;BME280;52177;55.968;37.498;2023-03-03T02:44:40;98141.25;;;-1.34;84.27
65546;BME280;52177;55.968;37.498;2023-03-03T02:45:10;98136.72;;;-1.32;84.31
65546;BME280;52177;55.968;37.498;2023-03-03T02:45:41;98131.66;;;-1.33;84.21
65546;BME280;52177;55.968;37.498;2023-03-03T02:46:11;98130.78;;;-1.34;84.43
65546;BME280;52177;55.968;37.498;2023-03-03T02:46:43;98136.88;;;-1.33;84.27
65546;BME280;52177;55.968;37.498;2023-03-03T02:47:13;98133.41;;;-1.34;84.17
65546;BME280;52177;55.968;37.498;2023-03-03T02:47:50;98132.47;;;-1.33;84.31
65546;BME280;52177;55.968;37.498;2023-03-03T02:48:20;98134.09;;;-1.32;84.29
65546;BME280;52177;55.968;37.498;2023-03-03T02:48:50;98128.88;;;-1.32;84.30
65546;BME280;52177;55.968;37.498;2023-03-03T02:49:22;98132.16;;;-1.30;84.16
65546;BME280;52177;55.968;37.498;2023-03-03T02:49:52;98131.22;;;-1.29;84.20
65546;BME280;52177;55.968;37.498;2023-03-03T02:50:23;98127.75;;;-1.29;84.15
65546;BME280;52177;55.968;37.498;2023-03-03T02:50:53;98126.13;;;-1.30;84.28
65546;BME280;52177;55.968;37.498;2023-03-03T02:51:23;98133.69;;;-1.27;84.17
65546;BME280;52177;55.968;37.498;2023-03-03T02:51:54;98136.16;;;-1.25;83.92
65546;BME280;52177;55.968;37.498;2023-03-03T02:52:24;98130.66;;;-1.22;83.65
65546;BME280;52177;55.968;37.498;2023-03-03T02:52:54;98134.94;;;-1.21;83.56
65546;BME280;52177;55.968;37.498;2023-03-03T02:53:25;98137.53;;;-1.21;83.55
65546;BME280;52177;55.968;37.498;2023-03-03T02:53:55;98139.19;;;-1.20;83.55
65546;BME280;52177;55.968;37.498;2023-03-03T02:54:26;98129.69;;;-1.21;83.51
65546;BME280;52177;55.968;37.498;2023-03-03T02:54:56;98139.31;;;-1.22;83.52
65546;BME280;52177;55.968;37.498;2023-03-03T02:55:27;98137.66;;;-1.23;83.63
65546;BME280;52177;55.968;37.498;2023-03-03T02:55:57;98137.53;;;-1.21;83.55
65546;BME280;52177;55.968;37.498;2023-03-03T02:56:27;98134.94;;;-1.21;83.42
65546;BME280;52177;55.968;37.498;2023-03-03T02:56:58;98140.16;;;-1.21;83.56
65546;BME280;52177;55.968;37.498;2023-03-03T02:57:29;98136.69;;;-1.22;83.65
65546;BME280;52177;55.968;37.498;2023-03-03T02:57:59;98130.81;;;-1.24;83.69
65546;BME280;52177;55.968;37.498;2023-03-03T02:58:29;98133.25;;;-1.22;83.67
65546;BME280;52177;55.968;37.498;2023-03-03T02:59:00;98131.47;;;-1.22;83.68
65546;BME280;52177;55.968;37.498;2023-03-03T02:59:30;98134.06;;;-1.22;83.83
65546;BME280;52177;55.968;37.498;2023-03-03T03:00:00;98133.13;;;-1.21;83.82
65546;BME280;52177;55.968;37.498;2023-03-03T03:00:31;98136.56;;;-1.20;83.71
65546;BME280;52177;55.968;37.498;2023-03-03T03:01:01;98142.78;;;-1.21;83.89
65546;BME280;52177;55.968;37.498;2023-03-03T03:01:31;98136.84;;;-1.23;83.87
65546;BME280;52177;55.968;37.498;2023-03-03T03:02:05;98135.06;;;-1.23;84.02
65546;BME280;52177;55.968;37.498;2023-03-03T03:02:37;98135.75;;;-1.21;83.84
65546;BME280;52177;55.968;37.498;2023-03-03T03:03:08;98135.75;;;-1.21;83.97